Time;durP1;ratioP1;P1;durP2;ratioP2;P2;SDS_P1;SDS_P2;PMS_P1;PMS_P2;Temp;Humidity;BMP_temperature;BMP_pressure;BME280_temperature;BME280_humidity;BME280_pressure;Samples;Min_cycle;Max_cycle;Signal;HPM_P1;HPM_P2
2023/02/09 00:04:25;;;;;;;3.97;3.57;;;1.20;30.00;;;;;;10437293;28;20239;-73
2023/02/09 00:09:28;;;;;;;5.60;4.43;;;1.20;30.00;;;;;;10445321;28;20252;-73
2023/02/09 00:14:33;;;;;;;14.47;7.03;;;1.20;30.00;;;;;;10437590;28;20241;-72
2023/02/09 00:19:38;;;;;;;14.30;6.63;;;1.10;30.00;;;;;;10444009;28;20225;-72
2023/02/09 00:24:41;;;;;;;14.63;6.83;;;1.00;30.00;;;;;;10441060;28;20240;-72
2023/02/09 00:29:47;;;;;;;15.30;7.53;;;1.00;30.00;;;;;;10438853;28;20229;-73
2023/02/09 00:34:51;;;;;;;8.30;5.27;;;0.90;29.90;;;;;;10439539;28;20726;-73
2023/02/09 00:39:54;;;;;;;11.30;5.90;;;0.80;30.00;;;;;;10434732;28;20248;-73
2023/02/09 00:44:57;;;;;;;12.37;5.93;;;0.70;30.00;;;;;;10440083;28;20233;-74
2023/02/09 00:50:05;;;;;;;8.13;5.07;;;0.70;30.00;;;;;;10432372;28;20220;-73
2023/02/09 00:55:08;;;;;;;14.37;6.00;;;0.60;30.00;;;;;;10450129;28;20236;-72
2023/02/09 01:00:14;;;;;;;13.67;6.33;;;0.60;30.00;;;;;;10438103;28;20256;-73
2023/02/09 01:05:19;;;;;;;6.47;4.47;;;0.60;30.00;;;;;;10443406;28;20232;-72
2023/02/09 01:10:22;;;;;;;7.00;4.03;;;0.50;30.00;;;;;;10438569;28;20286;-73
2023/02/09 01:15:25;;;;;;;4.10;3.50;;;0.40;30.00;;;;;;10455166;28;20239;-73
2023/02/09 01:20:29;;;;;;;5.23;3.77;;;0.40;30.00;;;;;;10444485;28;20229;-73
2023/02/09 01:25:33;;;;;;;4.27;3.50;;;0.30;30.00;;;;;;10461922;28;20228;-73
2023/02/09 01:30:36;;;;;;;4.03;3.27;;;0.30;30.00;;;;;;10447988;28;20233;-73
2023/02/09 01:35:41;;;;;;;5.63;3.77;;;0.20;30.00;;;;;;10452720;28;20241;-73
2023/02/09 01:40:47;;;;;;;4.20;3.47;;;0.20;30.10;;;;;;10445330;28;20596;-73
2023/02/09 01:45:53;;;;;;;5.77;3.73;;;0.10;30.10;;;;;;10441678;28;20229;-73
2023/02/09 01:51:00;;;;;;;5.47;3.63;;;0.10;30.10;;;;;;10447115;28;20244;-73
2023/02/09 01:56:07;;;;;;;4.87;3.83;;;0.00;30.00;;;;;;10449591;28;20287;-73
2023/02/09 02:01:11;;;;;;;8.53;4.47;;;0.00;30.20;;;;;;10440958;28;20240;-73
2023/02/09 02:06:18;;;;;;;8.73;4.37;;;0.00;30.20;;;;;;10445520;28;20634;-74
2023/02/09 02:11:23;;;;;;;6.00;3.83;;;-0.10;30.10;;;;;;10451391;28;20229;-73
2023/02/09 02:16:43;;;;;;;7.27;4.00;;;-0.10;30.00;;;;;;10442950;28;20240;-74
2023/02/09 02:22:34;;;;;;;4.70;3.40;;;-0.20;30.20;;;;;;10438668;28;20237;-73
2023/02/09 02:27:45;;;;;;;8.53;4.90;;;-0.30;30.10;;;;;;10406682;28;20700;-73
2023/02/09 02:33:11;;;;;;;9.13;5.33;;;-0.30;30.00;;;;;;10451664;28;20240;-73
2023/02/09 02:38:21;;;;;;;5.80;3.90;;;-0.40;30.00;;;;;;10444637;28;20220;-73
2023/02/09 02:43:37;;;;;;;5.97;4.03;;;-0.50;30.20;;;;;;10447478;28;20234;-73
2023/02/09 02:48:46;;;;;;;8.17;4.27;;;-0.60;30.10;;;;;;10441087;28;20224;-74
2023/02/09 02:53:54;;;;;;;7.87;4.50;;;-0.70;30.00;;;;;;10448002;28;20613;-73
2023/02/09 02:58:59;;;;;;;4.80;3.77;;;-0.80;30.10;;;;;;10452128;28;20233;-73
2023/02/09 03:04:06;;;;;;;7.43;4.60;;;-0.80;30.30;;;;;;10447613;28;20383;-73
2023/02/09 03:09:09;;;;;;;7.63;4.83;;;-0.80;30.30;;;;;;10446100;28;20278;-73
2023/02/09 03:14:25;;;;;;;7.30;4.57;;;-0.80;30.10;;;;;;10449693;28;20225;-73
2023/02/09 03:19:40;;;;;;;6.90;5.03;;;-0.80;30.10;;;;;;10443714;28;20233;-73
2023/02/09 03:24:50;;;;;;;9.37;5.53;;;-0.90;30.30;;;;;;10446813;28;20323;-73
2023/02/09 03:29:59;;;;;;;9.57;4.90;;;-0.90;30.40;;;;;;10440356;28;20245;-73
2023/02/09 03:35:05;;;;;;;10.37;5.60;;;-0.90;30.40;;;;;;10445593;28;20224;-73
2023/02/09 03:40:09;;;;;;;8.93;5.10;;;-0.90;30.50;;;;;;10454635;28;20257;-73
2023/02/09 03:45:12;;;;;;;9.67;4.83;;;-0.90;30.40;;;;;;10453948;28;20224;-74
2023/02/09 03:50:17;;;;;;;6.67;4.50;;;-0.90;30.40;;;;;;10445389;28;20243;-74
2023/02/09 03:55:20;;;;;;;6.97;4.17;;;-1.00;30.30;;;;;;10441952;28;20774;-73
2023/02/09 04:00:24;;;;;;;5.73;4.20;;;-1.00;30.20;;;;;;10446719;28;20598;-73
2023/02/09 04:05:28;;;;;;;4.17;3.77;;;-1.00;30.30;;;;;;10456968;28;20599;-74
2023/02/09 04:10:31;;;;;;;6.00;3.67;;;-1.00;30.40;;;;;;10432405;28;20241;-73
2023/02/09 04:15:35;;;;;;;5.00;3.73;;;-1.10;30.30;;;;;;10437070;28;20225;-73
2023/02/09 04:20:39;;;;;;;6.70;3.90;;;-1.10;30.30;;;;;;10440075;28;20305;-72
2023/02/09 04:25:43;;;;;;;5.57;3.97;;;-1.10;30.30;;;;;;10442007;28;20723;-73
2023/02/09 04:30:51;;;;;;;5.23;3.60;;;-1.10;30.30;;;;;;10445334;28;20244;-73
2023/02/09 04:35:55;;;;;;;5.47;4.17;;;-1.20;30.20;;;;;;10441274;28;20281;-73
2023/02/09 04:41:00;;;;;;;6.93;4.30;;;-1.20;30.20;;;;;;10439376;28;20240;-73
2023/02/09 04:46:03;;;;;;;8.47;5.27;;;-1.30;30.30;;;;;;10440443;28;20231;-73
2023/02/09 04:51:08;;;;;;;8.40;5.80;;;-1.40;30.10;;;;;;10440773;28;20313;-74
2023/02/09 04:56:14;;;;;;;8.00;6.57;;;-1.40;30.30;;;;;;10438002;28;20243;-74
2023/02/09 05:01:23;;;;;;;8.97;5.50;;;-1.40;31.10;;;;;;10435426;28;20795;-74
2023/02/09 05:06:27;;;;;;;9.50;6.33;;;-1.50;30.50;;;;;;10443320;28;20238;-73
2023/02/09 05:11:30;;;;;;;8.90;5.90;;;-1.50;30.40;;;;;;10448692;28;20237;-74
2023/02/09 05:16:33;;;;;;;7.67;5.57;;;-1.50;30.50;;;;;;10436316;28;20228;-73
2023/02/09 05:21:38;;;;;;;8.43;5.30;;;-1.60;30.40;;;;;;10443369;28;20288;-73
2023/02/09 05:26:42;;;;;;;6.67;4.57;;;-1.60;30.60;;;;;;10438134;28;20705;-74
2023/02/09 05:31:45;;;;;;;6.93;4.53;;;-1.60;30.50;;;;;;10442076;28;20228;-73
2023/02/09 05:36:50;;;;;;;5.30;3.83;;;-1.70;30.40;;;;;;10433016;28;20684;-74
2023/02/09 05:47:17;;;;;;;7.70;5.27;;;-1.80;30.60;;;;;;10435515;28;20229;-74
2023/02/09 05:52:21;;;;;;;6.13;4.57;;;-1.80;30.80;;;;;;10447933;28;20228;-74
2023/02/09 05:57:24;;;;;;;6.57;4.73;;;-1.80;30.70;;;;;;10440806;28;20232;-74
2023/02/09 06:02:27;;;;;;;6.60;4.40;;;-1.80;30.50;;;;;;10443720;28;20232;-75
2023/02/09 06:07:32;;;;;;;6.23;4.83;;;-1.80;30.50;;;;;;10442623;28;20233;-74
2023/02/09 06:12:35;;;;;;;7.30;4.83;;;-1.80;31.40;;;;;;10448018;28;20729;-74
2023/02/09 06:17:38;;;;;;;10.17;5.23;;;-1.80;30.80;;;;;;10441375;28;20240;-72
2023/02/09 06:22:46;;;;;;;7.03;4.87;;;-1.80;31.20;;;;;;10438506;28;20225;-74
2023/02/09 06:27:49;;;;;;;6.67;4.67;;;-1.80;31.70;;;;;;10443029;28;20232;-74
2023/02/09 06:32:52;;;;;;;5.83;4.57;;;-1.90;31.10;;;;;;10435544;28;20240;-74
2023/02/09 06:37:59;;;;;;;11.10;5.70;;;-1.70;31.30;;;;;;10440582;28;20603;-74
2023/02/09 06:43:02;;;;;;;11.80;7.10;;;-1.70;31.30;;;;;;10436443;28;20228;-74
2023/02/09 06:48:06;;;;;;;15.40;9.90;;;-1.70;31.30;;;;;;10437781;28;20239;-74
2023/02/09 06:53:13;;;;;;;16.67;9.20;;;-1.70;31.30;;;;;;10434163;28;20233;-75
2023/02/09 06:58:19;;;;;;;13.40;9.13;;;-1.70;31.30;;;;;;10445660;28;20221;-74
2023/02/09 07:03:22;;;;;;;12.43;8.63;;;-1.70;31.30;;;;;;10426938;28;20237;-74
2023/02/09 07:08:26;;;;;;;13.33;9.13;;;-1.90;31.10;;;;;;10434403;28;20237;-74
2023/02/09 07:13:30;;;;;;;12.70;8.03;;;-1.90;31.20;;;;;;10432334;28;20240;-74
2023/02/09 07:18:34;;;;;;;10.10;6.83;;;-1.90;31.10;;;;;;10435846;28;20771;-74
2023/02/09 07:23:39;;;;;;;7.73;5.73;;;-1.90;31.10;;;;;;10436180;28;20270;-74
2023/02/09 07:28:42;;;;;;;6.70;5.00;;;-1.80;31.30;;;;;;10423740;28;20237;-74
2023/02/09 07:33:46;;;;;;;6.73;4.73;;;-1.80;31.20;;;;;;10429555;28;20248;-74
2023/02/09 07:38:51;;;;;;;6.83;4.43;;;-1.80;31.30;;;;;;10435420;28;20320;-74
2023/02/09 07:43:55;;;;;;;8.30;5.77;;;-1.70;31.30;;;;;;10430938;28;20235;-75
2023/02/09 07:48:59;;;;;;;11.60;8.20;;;-1.70;31.50;;;;;;10431159;28;20243;-74
2023/02/09 07:54:07;;;;;;;10.80;6.83;;;-1.60;31.70;;;;;;10431555;28;20221;-74
2023/02/09 07:59:11;;;;;;;9.97;6.70;;;-1.60;31.90;;;;;;10434877;28;20235;-75
2023/02/09 08:04:14;;;;;;;9.03;6.43;;;-1.50;32.00;;;;;;10432611;28;20243;-74
2023/02/09 08:09:18;;;;;;;7.67;5.80;;;-1.40;32.20;;;;;;10437961;28;20236;-74
2023/02/09 08:14:25;;;;;;;8.23;5.70;;;-1.30;32.50;;;;;;10438144;28;20605;-74
2023/02/09 08:19:29;;;;;;;7.70;6.10;;;-1.10;32.90;;;;;;10440857;28;20237;-74
2023/02/09 08:24:33;;;;;;;7.90;5.97;;;-1.00;32.80;;;;;;10435484;28;20277;-74
2023/02/09 08:29:37;;;;;;;8.77;5.77;;;-0.80;33.30;;;;;;10438601;28;20232;-73
2023/02/09 08:34:40;;;;;;;7.37;5.23;;;-0.60;33.30;;;;;;10436044;28;20222;-74
2023/02/09 08:39:44;;;;;;;6.27;5.40;;;-0.40;33.40;;;;;;10436630;28;20235;-74
2023/02/09 08:44:48;;;;;;;8.47;6.23;;;-0.20;33.50;;;;;;10437110;28;20224;-74
2023/02/09 08:49:51;;;;;;;8.57;6.17;;;0.10;33.40;;;;;;10429088;28;20985;-74
2023/02/09 08:54:55;;;;;;;8.67;6.73;;;0.30;33.40;;;;;;10433959;28;20237;-74
2023/02/09 08:59:58;;;;;;;10.27;7.87;;;0.50;33.60;;;;;;10435077;28;20241;-74
2023/02/09 09:05:01;;;;;;;12.93;9.27;;;0.80;33.40;;;;;;10434771;28;20221;-74
2023/02/09 09:10:08;;;;;;;14.97;10.40;;;1.00;33.50;;;;;;10434831;28;20244;-74
2023/02/09 09:15:11;;;;;;;14.67;11.10;;;1.20;33.70;;;;;;10451131;28;20220;-74
2023/02/09 09:20:14;;;;;;;14.53;11.60;;;1.40;33.90;;;;;;10430810;28;20251;-74
2023/02/09 09:25:19;;;;;;;17.87;11.57;;;1.60;34.00;;;;;;10442966;28;20233;-74
2023/02/09 09:30:22;;;;;;;17.13;12.10;;;1.80;34.10;;;;;;10432602;28;20248;-74
2023/02/09 09:35:25;;;;;;;14.97;12.17;;;1.90;34.10;;;;;;10435714;28;20235;-73
2023/02/09 09:40:33;;;;;;;16.53;12.37;;;2.10;34.00;;;;;;10442210;28;20232;-75
2023/02/09 09:45:39;;;;;;;14.70;12.30;;;2.30;34.30;;;;;;10439443;28;20232;-74
2023/02/09 09:50:43;;;;;;;15.23;12.43;;;2.50;34.70;;;;;;10446713;28;20733;-69
2023/02/09 09:55:50;;;;;;;14.83;12.07;;;2.70;33.80;;;;;;10450752;28;20228;-70
2023/02/09 10:00:53;;;;;;;15.73;13.43;;;2.90;33.80;;;;;;10447332;28;20615;-70
2023/02/09 10:06:01;;;;;;;15.93;13.80;;;3.10;33.70;;;;;;10449798;28;20308;-69
2023/02/09 10:11:09;;;;;;;17.63;14.23;;;3.20;33.60;;;;;;10446774;28;20229;-70
2023/02/09 10:16:16;;;;;;;16.63;13.30;;;3.30;33.40;;;;;;10435023;28;20705;-70
2023/02/09 10:21:20;;;;;;;16.90;13.97;;;3.50;33.40;;;;;;10442448;28;21034;-70
2023/02/09 10:26:27;;;;;;;16.93;13.67;;;3.60;33.50;;;;;;10434160;28;20232;-75
2023/02/09 10:31:33;;;;;;;17.83;15.17;;;3.80;33.40;;;;;;10442833;28;20776;-70
2023/02/09 10:36:46;;;;;;;20.63;15.03;;;4.00;33.40;;;;;;10440348;28;20237;-70
2023/02/09 10:41:52;;;;;;;18.93;15.53;;;4.20;33.60;;;;;;10448402;28;20233;-71
2023/02/09 10:47:10;;;;;;;16.57;14.77;;;4.20;33.30;;;;;;10445692;28;20643;-72
2023/02/09 10:52:18;;;;;;;17.93;15.77;;;4.40;32.90;;;;;;10455006;28;20232;-71
2023/02/09 10:57:26;;;;;;;19.27;16.23;;;4.50;32.90;;;;;;10443082;28;20240;-72
2023/02/09 11:02:35;;;;;;;20.37;16.67;;;4.60;33.00;;;;;;10445752;28;20229;-71
2023/02/09 11:07:41;;;;;;;21.77;16.77;;;4.80;32.90;;;;;;10447601;28;20220;-71
2023/02/09 11:12:47;;;;;;;21.20;17.33;;;4.90;32.60;;;;;;10445193;28;20232;-71
2023/02/09 11:17:53;;;;;;;19.20;16.37;;;5.10;32.90;;;;;;10441627;28;20418;-71
2023/02/09 11:23:38;;;;;;;19.93;17.73;;;5.20;32.80;;;;;;10441112;28;20617;-71
2023/02/09 11:28:51;;;;;;;18.70;16.17;;;5.30;32.50;;;;;;10437124;28;20594;-72
2023/02/09 11:34:03;;;;;;;20.10;17.87;;;5.40;32.50;;;;;;10427825;28;20245;-72
2023/02/09 11:39:13;;;;;;;21.67;16.20;;;5.60;32.60;;;;;;10435627;28;20228;-72
2023/02/09 11:44:27;;;;;;;22.67;18.33;;;5.70;32.40;;;;;;10439765;28;20228;-71
2023/02/09 11:49:44;;;;;;;20.93;18.07;;;5.80;32.20;;;;;;10443036;28;20236;-71
2023/02/09 11:54:52;;;;;;;21.00;18.40;;;5.80;32.20;;;;;;10441031;28;20607;-71
2023/02/09 12:00:00;;;;;;;19.37;17.27;;;6.00;32.30;;;;;;10437560;28;20240;-71
2023/02/09 12:05:05;;;;;;;20.63;18.13;;;6.10;32.30;;;;;;10435972;28;20568;-72
2023/02/09 12:10:19;;;;;;;19.60;17.60;;;6.20;32.20;;;;;;10442887;28;20236;-71
2023/02/09 12:15:26;;;;;;;20.80;17.67;;;6.20;31.70;;;;;;10444545;28;20229;-72
2023/02/09 12:20:44;;;;;;;19.83;17.67;;;6.30;31.80;;;;;;10448993;28;20236;-71
2023/02/09 12:25:53;;;;;;;21.00;18.53;;;6.30;31.80;;;;;;10438693;28;20224;-72
2023/02/09 12:31:10;;;;;;;21.53;19.13;;;6.30;31.80;;;;;;10443145;28;20663;-72
2023/02/09 12:36:29;;;;;;;20.63;18.43;;;6.40;31.80;;;;;;10441552;28;20219;-72
2023/02/09 12:42:10;;;;;;;20.23;17.90;;;6.40;31.50;;;;;;10438178;28;20354;-72
2023/02/09 12:47:55;;;;;;;21.77;19.37;;;6.50;31.70;;;;;;10435025;28;20845;-72
2023/02/09 12:53:35;;;;;;;22.90;19.40;;;6.50;31.70;;;;;;10431638;28;20232;-72
2023/02/09 12:58:52;;;;;;;20.63;18.43;;;6.50;31.60;;;;;;10438557;28;20605;-71
2023/02/09 13:04:01;;;;;;;24.13;19.83;;;6.50;31.90;;;;;;10440473;28;20240;-71
2023/02/09 13:09:09;;;;;;;22.30;19.90;;;6.60;31.60;;;;;;10453398;28;20234;-72
2023/02/09 13:14:16;;;;;;;23.67;21.20;;;6.60;31.60;;;;;;10446897;28;20229;-72
2023/02/09 13:19:49;;;;;;;22.50;19.03;;;6.60;31.50;;;;;;10453744;28;20708;-72
2023/02/09 13:24:56;;;;;;;19.57;17.57;;;6.50;31.70;;;;;;10459388;28;20237;-71
2023/02/09 13:29:59;;;;;;;22.07;18.70;;;6.50;31.90;;;;;;10451740;28;20236;-72
2023/02/09 13:35:16;;;;;;;23.07;19.77;;;6.50;31.90;;;;;;10451606;28;20220;-72
2023/02/09 13:40:22;;;;;;;23.37;20.60;;;6.60;31.60;;;;;;10448992;28;20232;-71
2023/02/09 13:45:26;;;;;;;22.40;19.63;;;6.60;31.60;;;;;;10446282;28;20233;-71
2023/02/09 13:50:32;;;;;;;24.07;21.47;;;6.70;31.80;;;;;;10446961;28;20235;-72
2023/02/09 13:55:38;;;;;;;24.00;21.33;;;6.60;31.20;;;;;;10455506;28;20336;-72
2023/02/09 14:00:44;;;;;;;25.10;22.10;;;6.60;31.60;;;;;;10448276;28;20266;-71
2023/02/09 14:05:53;;;;;;;23.37;20.90;;;6.60;31.50;;;;;;10445948;28;20312;-71
2023/02/09 14:11:02;;;;;;;24.30;21.57;;;6.60;31.50;;;;;;10442423;28;20226;-72
2023/02/09 14:16:07;;;;;;;23.97;19.87;;;6.60;31.30;;;;;;10441005;28;20220;-72
2023/02/09 14:21:21;;;;;;;24.37;21.37;;;6.50;31.60;;;;;;10428549;28;20229;-72
2023/02/09 14:26:26;;;;;;;22.07;19.67;;;6.60;31.30;;;;;;10435932;28;20580;-72
2023/02/09 14:31:29;;;;;;;24.67;20.33;;;6.60;31.60;;;;;;10441630;28;20233;-71
2023/02/09 14:36:36;;;;;;;21.03;18.83;;;6.60;31.80;;;;;;10438166;28;20230;-71
2023/02/09 14:41:39;;;;;;;21.30;19.07;;;6.60;31.60;;;;;;10441023;28;20236;-72
2023/02/09 14:46:51;;;;;;;22.57;20.17;;;6.70;31.80;;;;;;10449550;28;20711;-71
2023/02/09 14:52:03;;;;;;;23.37;20.50;;;6.60;31.30;;;;;;10428361;28;20244;-71
2023/02/09 14:57:10;;;;;;;21.30;19.10;;;6.60;31.10;;;;;;10438098;28;20225;-72
2023/02/09 15:02:18;;;;;;;21.63;18.93;;;6.60;31.50;;;;;;10431019;28;20243;-71
2023/02/09 15:07:27;;;;;;;24.20;20.73;;;6.70;31.60;;;;;;10439392;28;20263;-71
2023/02/09 15:12:30;;;;;;;22.33;20.00;;;6.70;31.30;;;;;;10446224;28;20264;-71
2023/02/09 15:17:33;;;;;;;22.83;20.43;;;6.70;31.50;;;;;;10440659;28;20234;-70
2023/02/09 15:22:38;;;;;;;23.60;20.53;;;6.70;31.50;;;;;;10434353;28;20232;-71
2023/02/09 15:27:45;;;;;;;23.03;20.10;;;6.70;31.30;;;;;;10436227;28;20614;-71
2023/02/09 15:32:54;;;;;;;24.67;21.43;;;6.60;31.40;;;;;;10429384;28;20245;-71
2023/02/09 15:38:00;;;;;;;25.03;22.33;;;6.60;31.60;;;;;;10434708;28;20233;-72
2023/02/09 15:48:33;;;;;;;24.43;21.80;;;6.60;31.30;;;;;;10434310;28;20234;-71
2023/02/09 15:53:39;;;;;;;26.00;22.77;;;6.50;31.40;;;;;;10428860;28;20585;-72
2023/02/09 15:58:44;;;;;;;27.87;22.03;;;6.40;31.40;;;;;;10443710;28;20899;-71
2023/02/09 16:03:47;;;;;;;25.07;22.17;;;6.30;31.50;;;;;;10438355;28;20622;-71
2023/02/09 16:08:53;;;;;;;25.80;22.13;;;6.20;31.50;;;;;;10441443;28;20612;-71
2023/02/09 16:13:56;;;;;;;28.40;24.37;;;6.10;31.60;;;;;;10428264;28;20225;-71
2023/02/09 16:18:59;;;;;;;29.03;25.37;;;6.00;31.60;;;;;;10431753;28;20233;-71
2023/02/09 16:24:06;;;;;;;29.43;24.33;;;5.80;31.40;;;;;;10430409;28;20221;-71
2023/02/09 16:29:13;;;;;;;29.80;24.60;;;5.60;31.50;;;;;;10435246;28;20239;-71
2023/02/09 16:34:16;;;;;;;27.07;22.97;;;5.40;31.70;;;;;;10442726;28;20237;-70
2023/02/09 16:39:21;;;;;;;26.40;22.63;;;5.20;31.70;;;;;;10435273;28;20632;-69
2023/02/09 16:44:29;;;;;;;26.83;23.90;;;5.10;32.70;;;;;;10427535;28;20240;-68
2023/02/09 16:49:36;;;;;;;29.27;22.80;;;5.00;32.20;;;;;;10436767;28;20228;-68
2023/02/09 16:54:44;;;;;;;29.57;24.40;;;5.00;32.20;;;;;;10434724;28;20716;-69
2023/02/09 16:59:47;;;;;;;28.73;24.27;;;4.90;32.20;;;;;;10429943;28;20590;-73
2023/02/09 17:04:50;;;;;;;30.63;26.80;;;4.90;32.20;;;;;;10432426;28;20770;-73
2023/02/09 17:09:56;;;;;;;30.10;26.53;;;4.90;32.20;;;;;;10434149;28;20866;-73
2023/02/09 17:14:59;;;;;;;32.70;27.57;;;4.90;32.30;;;;;;10451063;28;20844;-73
2023/02/09 17:20:03;;;;;;;37.20;30.87;;;4.90;32.30;;;;;;10441110;28;20237;-73
2023/02/09 17:25:14;;;;;;;31.60;25.53;;;4.90;32.20;;;;;;10441745;28;20236;-74
2023/02/09 17:30:18;;;;;;;27.03;23.73;;;4.80;32.20;;;;;;10417483;28;20352;-74
2023/02/09 17:35:22;;;;;;;27.80;24.00;;;4.80;32.10;;;;;;10420337;28;20501;-74
2023/02/09 17:40:46;;;;;;;34.67;29.27;;;4.80;32.20;;;;;;10429584;28;20257;-74
2023/02/09 17:45:50;;;;;;;33.87;28.17;;;4.80;32.20;;;;;;10431466;28;20228;-75
2023/02/09 17:50:55;;;;;;;35.07;29.93;;;4.80;32.20;;;;;;10436253;28;20260;-74
2023/02/09 17:56:01;;;;;;;51.27;39.57;;;4.70;32.20;;;;;;10439113;28;20278;-71
2023/02/09 18:01:20;;;;;;;39.93;31.50;;;4.70;32.20;;;;;;10450882;28;20595;-71
2023/02/09 18:06:33;;;;;;;36.57;28.90;;;4.70;32.30;;;;;;10457141;28;20235;-71
2023/02/09 18:11:56;;;;;;;32.23;26.60;;;4.70;32.30;;;;;;10439022;28;20722;-71
2023/02/09 18:17:00;;;;;;;25.93;22.27;;;4.70;32.40;;;;;;10445635;28;20265;-71
2023/02/09 18:22:03;;;;;;;31.33;24.97;;;4.60;32.20;;;;;;10437248;28;20232;-71
2023/02/09 18:27:09;;;;;;;27.50;24.37;;;4.60;32.20;;;;;;10433795;28;20240;-71
2023/02/09 18:32:15;;;;;;;24.27;20.93;;;4.70;32.30;;;;;;10441780;28;20233;-71
2023/02/09 18:37:18;;;;;;;28.67;25.57;;;4.50;32.10;;;;;;10442821;28;20217;-71
2023/02/09 18:42:23;;;;;;;25.43;21.57;;;4.50;32.00;;;;;;10431349;28;20245;-71
2023/02/09 18:47:27;;;;;;;29.60;24.50;;;4.50;32.00;;;;;;10440848;28;20232;-71
2023/02/09 18:52:30;;;;;;;28.47;21.97;;;4.40;31.90;;;;;;10438065;28;20787;-71
2023/02/09 18:57:35;;;;;;;33.63;25.33;;;4.30;31.90;;;;;;10444920;28;20231;-71
2023/02/09 19:02:39;;;;;;;32.27;26.80;;;4.20;31.90;;;;;;10437031;28;20240;-71
2023/02/09 19:07:43;;;;;;;35.03;28.93;;;4.20;31.90;;;;;;10444478;28;20252;-70
2023/02/09 19:12:48;;;;;;;27.07;21.23;;;4.10;31.90;;;;;;10449636;28;20225;-70
2023/02/09 19:17:51;;;;;;;27.47;23.30;;;4.00;32.00;;;;;;10439181;28;20741;-71
2023/02/09 19:22:58;;;;;;;25.07;20.13;;;4.00;32.10;;;;;;10438691;28;20233;-71
2023/02/09 19:28:03;;;;;;;30.93;25.03;;;4.10;32.10;;;;;;10434997;28;20584;-72
2023/02/09 19:33:06;;;;;;;30.17;24.77;;;3.90;32.00;;;;;;10448620;28;20229;-71
2023/02/09 19:38:09;;;;;;;29.23;25.07;;;3.90;32.10;;;;;;10439958;28;20232;-71
2023/02/09 19:43:13;;;;;;;31.30;26.90;;;3.70;31.90;;;;;;10441442;28;20240;-71
2023/02/09 19:48:16;;;;;;;31.67;25.70;;;3.80;32.70;;;;;;10436822;28;20224;-71
2023/02/09 19:53:20;;;;;;;27.07;21.70;;;3.80;31.90;;;;;;10434965;28;20229;-71
2023/02/09 19:58:25;;;;;;;32.17;26.43;;;3.70;31.80;;;;;;10432920;28;20224;-71
2023/02/09 20:03:29;;;;;;;32.00;26.67;;;3.60;31.90;;;;;;10437981;28;20244;-71
2023/02/09 20:08:33;;;;;;;27.00;22.27;;;3.50;31.70;;;;;;10440972;28;20229;-71
2023/02/09 20:13:37;;;;;;;35.90;26.53;;;3.50;31.80;;;;;;10440797;28;20230;-71
2023/02/09 20:18:42;;;;;;;28.47;23.47;;;3.50;31.90;;;;;;10440673;28;20925;-71
2023/02/09 20:23:45;;;;;;;30.50;24.60;;;3.40;31.90;;;;;;10435007;28;20232;-71
2023/02/09 20:28:50;;;;;;;24.97;21.27;;;3.30;31.90;;;;;;10432054;28;20293;-71
2023/02/09 20:33:54;;;;;;;27.33;21.90;;;3.20;32.00;;;;;;10442401;28;20644;-71
2023/02/09 20:38:58;;;;;;;25.00;21.17;;;3.20;32.70;;;;;;10440867;28;20228;-72
2023/02/09 20:49:24;;;;;;;30.90;24.63;;;3.10;32.00;;;;;;10437555;28;20733;-71
2023/02/09 20:54:30;;;;;;;29.67;23.43;;;3.00;31.90;;;;;;10434078;28;20233;-72
2023/02/09 20:59:35;;;;;;;31.30;25.20;;;3.00;31.90;;;;;;10435626;28;20229;-71
2023/02/09 21:04:38;;;;;;;45.93;32.70;;;2.90;31.90;;;;;;10436509;28;20265;-71
2023/02/09 21:09:42;;;;;;;42.03;28.70;;;2.80;31.80;;;;;;10434494;28;20278;-71
2023/02/09 21:14:49;;;;;;;28.30;22.03;;;2.60;32.00;;;;;;10434189;28;20236;-71
2023/02/09 21:19:52;;;;;;;27.00;21.17;;;2.50;32.30;;;;;;10435870;28;20239;-71
2023/02/09 21:24:55;;;;;;;31.67;24.93;;;2.40;32.40;;;;;;10432536;28;20235;-71
2023/02/09 21:30:00;;;;;;;30.50;24.03;;;2.30;32.50;;;;;;10438762;28;20233;-70
2023/02/09 21:35:08;;;;;;;31.33;24.93;;;2.20;32.50;;;;;;10441727;28;20222;-70
2023/02/09 21:40:12;;;;;;;30.67;24.30;;;2.10;32.50;;;;;;10440071;28;20229;-71
2023/02/09 21:45:17;;;;;;;28.33;22.23;;;2.00;32.50;;;;;;10448086;28;20236;-71
2023/02/09 21:50:21;;;;;;;29.73;22.57;;;2.00;32.50;;;;;;10440769;28;20322;-71
2023/02/09 21:55:24;;;;;;;28.20;22.10;;;2.00;32.50;;;;;;10443089;28;20282;-71
2023/02/09 22:00:29;;;;;;;27.40;21.33;;;2.00;32.60;;;;;;10446453;28;20322;-72
2023/02/09 22:05:32;;;;;;;30.73;23.27;;;1.90;32.70;;;;;;10446843;28;20739;-71
2023/02/09 22:10:36;;;;;;;29.83;21.77;;;1.80;32.70;;;;;;10443248;28;20241;-72
2023/02/09 22:15:42;;;;;;;32.57;25.27;;;2.00;32.90;;;;;;10441751;28;20221;-72
2023/02/09 22:20:47;;;;;;;26.63;21.33;;;1.80;32.90;;;;;;10434243;28;20237;-72
2023/02/09 22:25:50;;;;;;;27.23;20.50;;;1.80;32.90;;;;;;10442630;28;20231;-71
2023/02/09 22:30:55;;;;;;;23.97;18.73;;;1.80;32.70;;;;;;10440046;28;20228;-71
2023/02/09 22:35:58;;;;;;;35.47;24.40;;;1.80;32.80;;;;;;10445804;28;20228;-71
2023/02/09 22:41:06;;;;;;;32.17;23.17;;;1.80;32.70;;;;;;10434919;28;20890;-72
2023/02/09 22:46:10;;;;;;;26.53;20.27;;;1.80;32.80;;;;;;10444784;28;20669;-71
2023/02/09 22:51:16;;;;;;;30.03;22.33;;;1.80;32.60;;;;;;10440575;28;20237;-71
2023/02/09 22:56:19;;;;;;;27.60;20.63;;;1.70;32.60;;;;;;10445590;28;20228;-71
2023/02/09 23:01:24;;;;;;;34.50;23.87;;;1.70;32.60;;;;;;10444839;28;20244;-71
2023/02/09 23:06:29;;;;;;;30.27;22.37;;;1.60;32.50;;;;;;10450036;28;20279;-71
2023/02/09 23:11:32;;;;;;;25.70;20.30;;;1.50;32.50;;;;;;10438687;28;20793;-71
2023/02/09 23:16:37;;;;;;;28.90;21.73;;;1.50;32.60;;;;;;10446940;28;20279;-70
2023/02/09 23:21:42;;;;;;;35.80;25.03;;;1.60;32.80;;;;;;10441259;28;20237;-70
2023/02/09 23:26:45;;;;;;;37.50;26.97;;;1.40;32.70;;;;;;10441458;28;20727;-71
2023/02/09 23:31:49;;;;;;;41.17;28.70;;;1.40;32.60;;;;;;10435961;28;20233;-71
2023/02/09 23:36:53;;;;;;;35.73;25.57;;;1.40;32.70;;;;;;10445323;28;20232;-71
2023/02/09 23:41:56;;;;;;;41.43;28.73;;;1.40;32.70;;;;;;10437262;28;20245;-71
2023/02/09 23:47:00;;;;;;;34.13;25.60;;;1.40;32.50;;;;;;10436536;28;21668;-70
2023/02/09 23:52:03;;;;;;;33.40;24.40;;;1.30;32.50;;;;;;10438758;28;20257;-73
2023/02/09 23:57:06;;;;;;;35.63;25.23;;;1.20;32.50;;;;;;10444117;28;20228;-71
